sensor_id;sensor_type;location;lat;lon;timestamp;P1;durP1;ratioP1;P2;durP2;ratioP2
26106;SDS011;13866;50.748;12.630;2023-12-14T00:02:14;7.70;;;6.77;;
26106;SDS011;13866;50.748;12.630;2023-12-14T00:04:40;7.77;;;7.07;;
26106;SDS011;13866;50.748;12.630;2023-12-14T00:07:06;18.20;;;6.70;;
26106;SDS011;13866;50.748;12.630;2023-12-14T00:09:31;8.07;;;7.33;;
26106;SDS011;13866;50.748;12.630;2023-12-14T00:11:57;5.47;;;5.30;;
26106;SDS011;13866;50.748;12.630;2023-12-14T00:14:22;8.07;;;7.50;;
26106;SDS011;13866;50.748;12.630;2023-12-14T00:16:47;7.13;;;6.80;;
26106;SDS011;13866;50.748;12.630;2023-12-14T00:19:14;8.73;;;7.37;;
26106;SDS011;13866;50.748;12.630;2023-12-14T00:21:39;7.57;;;6.97;;
26106;SDS011;13866;50.748;12.630;2023-12-14T00:24:05;9.00;;;7.70;;
26106;SDS011;13866;50.748;12.630;2023-12-14T00:26:31;7.20;;;6.63;;
26106;SDS011;13866;50.748;12.630;2023-12-14T00:28:57;6.63;;;6.13;;
26106;SDS011;13866;50.748;12.630;2023-12-14T00:31:22;6.23;;;6.00;;
26106;SDS011;13866;50.748;12.630;2023-12-14T00:33:48;6.27;;;6.07;;
26106;SDS011;13866;50.748;12.630;2023-12-14T00:36:19;5.70;;;5.50;;
26106;SDS011;13866;50.748;12.630;2023-12-14T00:38:45;5.80;;;5.50;;
26106;SDS011;13866;50.748;12.630;2023-12-14T00:41:11;6.20;;;5.97;;
26106;SDS011;13866;50.748;12.630;2023-12-14T00:43:37;5.10;;;4.83;;
26106;SDS011;13866;50.748;12.630;2023-12-14T00:46:03;5.40;;;5.30;;
26106;SDS011;13866;50.748;12.630;2023-12-14T00:48:28;6.60;;;6.20;;
26106;SDS011;13866;50.748;12.630;2023-12-14T00:50:54;7.40;;;6.80;;
26106;SDS011;13866;50.748;12.630;2023-12-14T00:53:19;8.07;;;6.07;;
26106;SDS011;13866;50.748;12.630;2023-12-14T00:55:45;5.37;;;5.27;;
26106;SDS011;13866;50.748;12.630;2023-12-14T00:58:11;6.57;;;6.07;;
26106;SDS011;13866;50.748;12.630;2023-12-14T01:00:39;7.63;;;6.47;;
26106;SDS011;13866;50.748;12.630;2023-12-14T01:03:05;6.47;;;6.27;;
26106;SDS011;13866;50.748;12.630;2023-12-14T01:05:30;6.87;;;6.57;;
26106;SDS011;13866;50.748;12.630;2023-12-14T01:07:56;5.80;;;5.60;;
26106;SDS011;13866;50.748;12.630;2023-12-14T01:10:21;5.57;;;5.37;;
26106;SDS011;13866;50.748;12.630;2023-12-14T01:12:47;8.60;;;8.00;;
26106;SDS011;13866;50.748;12.630;2023-12-14T01:15:12;7.90;;;7.40;;
26106;SDS011;13866;50.748;12.630;2023-12-14T01:17:38;9.33;;;7.80;;
26106;SDS011;13866;50.748;12.630;2023-12-14T01:20:05;9.07;;;8.53;;
26106;SDS011;13866;50.748;12.630;2023-12-14T01:22:31;10.63;;;9.50;;
26106;SDS011;13866;50.748;12.630;2023-12-14T01:24:57;11.20;;;10.13;;
26106;SDS011;13866;50.748;12.630;2023-12-14T01:27:23;10.57;;;9.73;;
26106;SDS011;13866;50.748;12.630;2023-12-14T01:29:48;9.90;;;9.10;;
26106;SDS011;13866;50.748;12.630;2023-12-14T01:32:13;9.90;;;9.17;;
26106;SDS011;13866;50.748;12.630;2023-12-14T01:34:39;10.00;;;9.23;;
26106;SDS011;13866;50.748;12.630;2023-12-14T01:37:04;12.67;;;10.57;;
26106;SDS011;13866;50.748;12.630;2023-12-14T01:39:30;9.97;;;9.37;;
26106;SDS011;13866;50.748;12.630;2023-12-14T01:41:55;10.27;;;9.20;;
26106;SDS011;13866;50.748;12.630;2023-12-14T01:44:21;12.50;;;9.80;;
26106;SDS011;13866;50.748;12.630;2023-12-14T01:46:46;11.10;;;10.03;;
26106;SDS011;13866;50.748;12.630;2023-12-14T01:49:12;9.43;;;8.63;;
26106;SDS011;13866;50.748;12.630;2023-12-14T01:51:37;11.53;;;8.90;;
26106;SDS011;13866;50.748;12.630;2023-12-14T01:54:02;11.57;;;10.33;;
26106;SDS011;13866;50.748;12.630;2023-12-14T01:56:28;8.47;;;8.07;;
26106;SDS011;13866;50.748;12.630;2023-12-14T01:58:53;9.23;;;8.57;;
26106;SDS011;13866;50.748;12.630;2023-12-14T02:04:03;9.57;;;8.87;;
26106;SDS011;13866;50.748;12.630;2023-12-14T02:06:31;8.20;;;7.80;;
26106;SDS011;13866;50.748;12.630;2023-12-14T02:08:56;10.20;;;9.40;;
26106;SDS011;13866;50.748;12.630;2023-12-14T02:11:22;10.47;;;9.67;;
26106;SDS011;13866;50.748;12.630;2023-12-14T02:13:47;12.03;;;10.93;;
26106;SDS011;13866;50.748;12.630;2023-12-14T02:16:13;12.57;;;11.37;;
26106;SDS011;13866;50.748;12.630;2023-12-14T02:18:38;11.57;;;10.67;;
26106;SDS011;13866;50.748;12.630;2023-12-14T02:21:04;13.40;;;12.23;;
26106;SDS011;13866;50.748;12.630;2023-12-14T02:23:29;13.63;;;12.23;;
26106;SDS011;13866;50.748;12.630;2023-12-14T02:25:55;14.70;;;13.33;;
26106;SDS011;13866;50.748;12.630;2023-12-14T02:28:20;17.23;;;13.43;;
26106;SDS011;13866;50.748;12.630;2023-12-14T02:30:46;15.27;;;13.87;;
26106;SDS011;13866;50.748;12.630;2023-12-14T02:33:11;19.33;;;16.10;;
26106;SDS011;13866;50.748;12.630;2023-12-14T02:35:37;19.93;;;16.00;;
26106;SDS011;13866;50.748;12.630;2023-12-14T02:38:02;21.63;;;16.13;;
26106;SDS011;13866;50.748;12.630;2023-12-14T02:40:28;22.57;;;16.20;;
26106;SDS011;13866;50.748;12.630;2023-12-14T02:42:53;23.47;;;17.30;;
26106;SDS011;13866;50.748;12.630;2023-12-14T02:45:19;21.43;;;17.70;;
26106;SDS011;13866;50.748;12.630;2023-12-14T02:47:44;22.83;;;18.23;;
26106;SDS011;13866;50.748;12.630;2023-12-14T02:50:12;20.93;;;17.93;;
26106;SDS011;13866;50.748;12.630;2023-12-14T02:52:38;21.67;;;17.33;;
26106;SDS011;13866;50.748;12.630;2023-12-14T02:55:03;20.50;;;17.63;;
26106;SDS011;13866;50.748;12.630;2023-12-14T02:57:29;19.50;;;17.50;;
26106;SDS011;13866;50.748;12.630;2023-12-14T02:59:55;32.00;;;18.37;;
26106;SDS011;13866;50.748;12.630;2023-12-14T03:02:20;33.60;;;20.03;;
26106;SDS011;13866;50.748;12.630;2023-12-14T03:04:47;28.40;;;20.23;;
26106;SDS011;13866;50.748;12.630;2023-12-14T03:07:12;27.27;;;19.10;;
26106;SDS011;13866;50.748;12.630;2023-12-14T03:09:41;28.40;;;19.37;;
26106;SDS011;13866;50.748;12.630;2023-12-14T03:12:09;34.80;;;20.53;;
26106;SDS011;13866;50.748;12.630;2023-12-14T03:14:35;35.00;;;21.20;;
26106;SDS011;13866;50.748;12.630;2023-12-14T03:17:00;32.37;;;22.90;;
26106;SDS011;13866;50.748;12.630;2023-12-14T03:19:26;29.47;;;19.33;;
26106;SDS011;13866;50.748;12.630;2023-12-14T03:21:51;36.57;;;23.37;;
26106;SDS011;13866;50.748;12.630;2023-12-14T03:24:17;74.60;;;23.47;;
26106;SDS011;13866;50.748;12.630;2023-12-14T03:26:42;37.20;;;22.50;;
26106;SDS011;13866;50.748;12.630;2023-12-14T03:29:08;38.70;;;24.17;;
26106;SDS011;13866;50.748;12.630;2023-12-14T03:31:33;48.40;;;25.23;;
26106;SDS011;13866;50.748;12.630;2023-12-14T03:34:00;45.03;;;25.30;;
26106;SDS011;13866;50.748;12.630;2023-12-14T03:36:25;46.40;;;24.17;;
26106;SDS011;13866;50.748;12.630;2023-12-14T03:42:14;51.73;;;24.43;;
26106;SDS011;13866;50.748;12.630;2023-12-14T03:44:39;64.63;;;24.70;;
26106;SDS011;13866;50.748;12.630;2023-12-14T03:47:05;60.27;;;25.27;;
26106;SDS011;13866;50.748;12.630;2023-12-14T03:49:30;64.77;;;25.77;;
26106;SDS011;13866;50.748;12.630;2023-12-14T03:51:56;45.63;;;24.50;;
26106;SDS011;13866;50.748;12.630;2023-12-14T03:54:21;56.77;;;23.63;;
26106;SDS011;13866;50.748;12.630;2023-12-14T03:56:47;46.70;;;22.57;;
26106;SDS011;13866;50.748;12.630;2023-12-14T03:59:12;40.83;;;23.80;;
26106;SDS011;13866;50.748;12.630;2023-12-14T04:01:38;58.50;;;22.70;;
26106;SDS011;13866;50.748;12.630;2023-12-14T04:04:05;41.90;;;21.67;;
26106;SDS011;13866;50.748;12.630;2023-12-14T04:06:30;27.27;;;19.37;;
26106;SDS011;13866;50.748;12.630;2023-12-14T04:08:56;35.30;;;21.90;;
26106;SDS011;13866;50.748;12.630;2023-12-14T04:11:21;40.47;;;19.60;;
26106;SDS011;13866;50.748;12.630;2023-12-14T04:13:47;47.23;;;19.67;;
26106;SDS011;13866;50.748;12.630;2023-12-14T04:16:15;28.37;;;16.97;;
26106;SDS011;13866;50.748;12.630;2023-12-14T04:18:40;63.70;;;19.60;;
26106;SDS011;13866;50.748;12.630;2023-12-14T04:21:06;63.57;;;20.57;;
26106;SDS011;13866;50.748;12.630;2023-12-14T04:23:31;106.13;;;23.17;;
26106;SDS011;13866;50.748;12.630;2023-12-14T04:25:57;83.00;;;22.90;;
26106;SDS011;13866;50.748;12.630;2023-12-14T04:28:22;76.20;;;22.83;;
26106;SDS011;13866;50.748;12.630;2023-12-14T04:30:48;150.60;;;31.53;;
26106;SDS011;13866;50.748;12.630;2023-12-14T04:33:13;176.67;;;39.47;;
26106;SDS011;13866;50.748;12.630;2023-12-14T04:35:39;158.30;;;26.67;;
26106;SDS011;13866;50.748;12.630;2023-12-14T04:38:05;104.17;;;29.20;;
26106;SDS011;13866;50.748;12.630;2023-12-14T04:40:30;325.03;;;27.93;;
26106;SDS011;13866;50.748;12.630;2023-12-14T04:42:56;233.17;;;26.90;;
26106;SDS011;13866;50.748;12.630;2023-12-14T04:45:21;243.33;;;23.77;;
26106;SDS011;13866;50.748;12.630;2023-12-14T04:47:47;232.43;;;26.70;;
26106;SDS011;13866;50.748;12.630;2023-12-14T04:50:12;162.93;;;27.63;;
26106;SDS011;13866;50.748;12.630;2023-12-14T04:52:38;426.67;;;35.60;;
26106;SDS011;13866;50.748;12.630;2023-12-14T04:55:03;198.57;;;28.07;;
26106;SDS011;13866;50.748;12.630;2023-12-14T04:57:29;156.20;;;25.80;;
26106;SDS011;13866;50.748;12.630;2023-12-14T04:59:55;124.47;;;19.13;;
26106;SDS011;13866;50.748;12.630;2023-12-14T05:02:20;106.40;;;22.63;;
26106;SDS011;13866;50.748;12.630;2023-12-14T05:04:46;310.30;;;23.60;;
26106;SDS011;13866;50.748;12.630;2023-12-14T05:07:11;337.07;;;26.17;;
26106;SDS011;13866;50.748;12.630;2023-12-14T05:09:37;341.27;;;24.33;;
26106;SDS011;13866;50.748;12.630;2023-12-14T05:12:02;93.10;;;15.90;;
26106;SDS011;13866;50.748;12.630;2023-12-14T05:14:29;29.63;;;11.53;;
26106;SDS011;13866;50.748;12.630;2023-12-14T05:16:54;12.77;;;10.30;;
26106;SDS011;13866;50.748;12.630;2023-12-14T05:19:20;8.90;;;8.07;;
26106;SDS011;13866;50.748;12.630;2023-12-14T05:21:45;6.90;;;6.50;;
26106;SDS011;13866;50.748;12.630;2023-12-14T05:24:10;6.53;;;6.03;;
26106;SDS011;13866;50.748;12.630;2023-12-14T05:26:36;6.83;;;6.53;;
26106;SDS011;13866;50.748;12.630;2023-12-14T05:29:01;6.67;;;5.70;;
26106;SDS011;13866;50.748;12.630;2023-12-14T05:31:27;5.17;;;4.90;;
26106;SDS011;13866;50.748;12.630;2023-12-14T05:33:52;5.10;;;4.90;;
26106;SDS011;13866;50.748;12.630;2023-12-14T05:36:18;7.00;;;6.50;;
26106;SDS011;13866;50.748;12.630;2023-12-14T05:38:44;5.80;;;5.40;;
26106;SDS011;13866;50.748;12.630;2023-12-14T05:41:09;7.13;;;4.80;;
26106;SDS011;13866;50.748;12.630;2023-12-14T05:43:35;6.17;;;5.63;;
26106;SDS011;13866;50.748;12.630;2023-12-14T05:46:01;5.43;;;5.13;;
26106;SDS011;13866;50.748;12.630;2023-12-14T05:48:27;5.20;;;4.80;;
26106;SDS011;13866;50.748;12.630;2023-12-14T05:50:53;6.13;;;5.73;;
26106;SDS011;13866;50.748;12.630;2023-12-14T05:53:18;4.87;;;4.67;;
26106;SDS011;13866;50.748;12.630;2023-12-14T05:55:44;5.63;;;5.33;;
26106;SDS011;13866;50.748;12.630;2023-12-14T05:58:09;5.03;;;4.63;;
26106;SDS011;13866;50.748;12.630;2023-12-14T06:00:35;5.00;;;4.80;;
26106;SDS011;13866;50.748;12.630;2023-12-14T06:03:01;4.90;;;4.70;;
26106;SDS011;13866;50.748;12.630;2023-12-14T06:05:27;6.27;;;5.83;;
26106;SDS011;13866;50.748;12.630;2023-12-14T06:07:52;6.33;;;5.73;;
26106;SDS011;13866;50.748;12.630;2023-12-14T06:10:18;8.70;;;6.60;;
26106;SDS011;13866;50.748;12.630;2023-12-14T06:12:44;24.97;;;7.93;;
26106;SDS011;13866;50.748;12.630;2023-12-14T06:15:09;63.57;;;10.20;;
26106;SDS011;13866;50.748;12.630;2023-12-14T06:17:38;106.43;;;12.13;;
26106;SDS011;13866;50.748;12.630;2023-12-14T06:20:05;129.50;;;13.57;;
26106;SDS011;13866;50.748;12.630;2023-12-14T06:22:33;134.83;;;12.20;;
26106;SDS011;13866;50.748;12.630;2023-12-14T06:25:03;259.77;;;15.97;;
26106;SDS011;13866;50.748;12.630;2023-12-14T06:27:28;197.33;;;14.97;;
26106;SDS011;13866;50.748;12.630;2023-12-14T06:29:54;133.47;;;12.23;;
26106;SDS011;13866;50.748;12.630;2023-12-14T06:32:20;254.40;;;17.13;;
26106;SDS011;13866;50.748;12.630;2023-12-14T06:34:45;176.50;;;15.73;;
26106;SDS011;13866;50.748;12.630;2023-12-14T06:37:11;155.87;;;16.33;;
26106;SDS011;13866;50.748;12.630;2023-12-14T06:39:36;174.10;;;16.77;;
26106;SDS011;13866;50.748;12.630;2023-12-14T06:42:01;161.63;;;12.87;;
26106;SDS011;13866;50.748;12.630;2023-12-14T06:44:27;123.83;;;13.43;;
26106;SDS011;13866;50.748;12.630;2023-12-14T06:46:55;117.20;;;13.20;;
26106;SDS011;13866;50.748;12.630;2023-12-14T06:49:23;102.37;;;13.40;;
26106;SDS011;13866;50.748;12.630;2023-12-14T06:51:48;102.77;;;14.30;;
26106;SDS011;13866;50.748;12.630;2023-12-14T06:54:14;135.73;;;13.33;;
26106;SDS011;13866;50.748;12.630;2023-12-14T06:56:39;162.70;;;17.57;;
26106;SDS011;13866;50.748;12.630;2023-12-14T06:59:05;155.33;;;16.40;;
26106;SDS011;13866;50.748;12.630;2023-12-14T07:01:30;336.77;;;18.97;;
26106;SDS011;13866;50.748;12.630;2023-12-14T07:03:56;206.67;;;18.13;;
26106;SDS011;13866;50.748;12.630;2023-12-14T07:06:21;296.47;;;19.40;;
26106;SDS011;13866;50.748;12.630;2023-12-14T07:08:46;153.00;;;15.97;;
26106;SDS011;13866;50.748;12.630;2023-12-14T07:11:12;128.57;;;14.07;;
26106;SDS011;13866;50.748;12.630;2023-12-14T07:13:38;126.33;;;15.17;;
26106;SDS011;13866;50.748;12.630;2023-12-14T07:16:05;214.47;;;17.77;;
26106;SDS011;13866;50.748;12.630;2023-12-14T07:18:35;211.87;;;17.57;;
26106;SDS011;13866;50.748;12.630;2023-12-14T07:21:04;194.30;;;19.00;;
26106;SDS011;13866;50.748;12.630;2023-12-14T07:23:30;231.27;;;17.43;;
26106;SDS011;13866;50.748;12.630;2023-12-14T07:25:55;112.00;;;14.97;;
26106;SDS011;13866;50.748;12.630;2023-12-14T07:28:21;166.50;;;16.53;;
26106;SDS011;13866;50.748;12.630;2023-12-14T07:30:47;164.07;;;15.23;;
26106;SDS011;13866;50.748;12.630;2023-12-14T07:33:13;256.73;;;17.03;;
26106;SDS011;13866;50.748;12.630;2023-12-14T07:35:39;124.63;;;15.43;;
26106;SDS011;13866;50.748;12.630;2023-12-14T07:38:05;298.90;;;24.70;;
26106;SDS011;13866;50.748;12.630;2023-12-14T07:40:30;242.30;;;19.40;;
26106;SDS011;13866;50.748;12.630;2023-12-14T07:42:56;169.50;;;16.43;;
26106;SDS011;13866;50.748;12.630;2023-12-14T07:45:21;151.70;;;16.63;;
26106;SDS011;13866;50.748;12.630;2023-12-14T07:47:47;171.23;;;16.00;;
26106;SDS011;13866;50.748;12.630;2023-12-14T07:50:12;113.07;;;14.83;;
26106;SDS011;13866;50.748;12.630;2023-12-14T07:52:38;54.47;;;12.80;;
26106;SDS011;13866;50.748;12.630;2023-12-14T07:55:04;65.73;;;12.60;;
26106;SDS011;13866;50.748;12.630;2023-12-14T07:57:30;64.10;;;12.70;;
26106;SDS011;13866;50.748;12.630;2023-12-14T07:59:56;113.40;;;13.97;;
26106;SDS011;13866;50.748;12.630;2023-12-14T08:02:22;128.07;;;14.00;;
26106;SDS011;13866;50.748;12.630;2023-12-14T08:04:47;54.37;;;12.43;;
26106;SDS011;13866;50.748;12.630;2023-12-14T08:07:13;62.33;;;12.87;;
26106;SDS011;13866;50.748;12.630;2023-12-14T08:09:38;71.10;;;14.00;;
26106;SDS011;13866;50.748;12.630;2023-12-14T08:12:04;24.17;;;13.70;;
26106;SDS011;13866;50.748;12.630;2023-12-14T08:14:31;59.70;;;15.00;;
26106;SDS011;13866;50.748;12.630;2023-12-14T08:16:59;32.27;;;13.07;;
26106;SDS011;13866;50.748;12.630;2023-12-14T08:19:24;49.00;;;14.53;;
26106;SDS011;13866;50.748;12.630;2023-12-14T08:21:50;56.33;;;13.80;;
26106;SDS011;13866;50.748;12.630;2023-12-14T08:24:15;55.40;;;13.77;;
26106;SDS011;13866;50.748;12.630;2023-12-14T08:26:41;87.57;;;14.83;;
26106;SDS011;13866;50.748;12.630;2023-12-14T08:29:06;82.80;;;16.50;;
26106;SDS011;13866;50.748;12.630;2023-12-14T08:31:32;49.00;;;14.00;;
26106;SDS011;13866;50.748;12.630;2023-12-14T08:33:57;45.57;;;15.07;;
26106;SDS011;13866;50.748;12.630;2023-12-14T08:36:22;38.73;;;14.87;;
26106;SDS011;13866;50.748;12.630;2023-12-14T08:38:48;49.83;;;11.33;;
26106;SDS011;13866;50.748;12.630;2023-12-14T08:41:14;48.43;;;10.37;;
26106;SDS011;13866;50.748;12.630;2023-12-14T08:43:39;36.17;;;10.40;;
26106;SDS011;13866;50.748;12.630;2023-12-14T08:46:05;12.60;;;8.30;;
26106;SDS011;13866;50.748;12.630;2023-12-14T08:48:30;15.87;;;8.27;;
26106;SDS011;13866;50.748;12.630;2023-12-14T08:50:56;9.43;;;8.20;;
26106;SDS011;13866;50.748;12.630;2023-12-14T08:53:22;28.93;;;9.03;;
26106;SDS011;13866;50.748;12.630;2023-12-14T08:55:47;17.83;;;8.37;;
26106;SDS011;13866;50.748;12.630;2023-12-14T08:58:13;22.23;;;9.40;;
26106;SDS011;13866;50.748;12.630;2023-12-14T09:00:38;32.40;;;9.07;;
26106;SDS011;13866;50.748;12.630;2023-12-14T09:03:04;67.03;;;8.83;;
26106;SDS011;13866;50.748;12.630;2023-12-14T09:05:29;119.83;;;11.57;;
26106;SDS011;13866;50.748;12.630;2023-12-14T09:07:55;50.37;;;11.30;;
26106;SDS011;13866;50.748;12.630;2023-12-14T09:10:21;53.43;;;10.70;;
26106;SDS011;13866;50.748;12.630;2023-12-14T09:12:47;255.37;;;16.80;;
26106;SDS011;13866;50.748;12.630;2023-12-14T09:15:13;421.17;;;24.70;;
26106;SDS011;13866;50.748;12.630;2023-12-14T09:17:40;321.10;;;18.90;;
26106;SDS011;13866;50.748;12.630;2023-12-14T09:20:07;343.97;;;20.70;;
26106;SDS011;13866;50.748;12.630;2023-12-14T09:22:33;381.03;;;29.50;;
26106;SDS011;13866;50.748;12.630;2023-12-14T09:24:59;405.07;;;25.43;;
26106;SDS011;13866;50.748;12.630;2023-12-14T09:27:24;392.53;;;23.30;;
26106;SDS011;13866;50.748;12.630;2023-12-14T09:29:50;379.00;;;24.07;;
26106;SDS011;13866;50.748;12.630;2023-12-14T09:32:15;230.00;;;18.67;;
26106;SDS011;13866;50.748;12.630;2023-12-14T09:34:42;150.47;;;20.40;;
26106;SDS011;13866;50.748;12.630;2023-12-14T09:37:08;74.30;;;15.97;;
26106;SDS011;13866;50.748;12.630;2023-12-14T09:39:33;73.67;;;13.27;;
26106;SDS011;13866;50.748;12.630;2023-12-14T09:42:05;71.63;;;15.97;;
26106;SDS011;13866;50.748;12.630;2023-12-14T09:44:32;78.73;;;16.27;;
26106;SDS011;13866;50.748;12.630;2023-12-14T09:47:01;73.73;;;15.20;;
26106;SDS011;13866;50.748;12.630;2023-12-14T09:49:29;51.40;;;15.90;;
26106;SDS011;13866;50.748;12.630;2023-12-14T09:51:58;27.77;;;15.83;;
26106;SDS011;13866;50.748;12.630;2023-12-14T09:54:25;30.60;;;15.17;;
26106;SDS011;13866;50.748;12.630;2023-12-14T09:56:51;28.53;;;14.33;;
26106;SDS011;13866;50.748;12.630;2023-12-14T09:59:20;14.43;;;11.90;;
26106;SDS011;13866;50.748;12.630;2023-12-14T10:01:46;16.20;;;13.00;;
26106;SDS011;13866;50.748;12.630;2023-12-14T10:04:14;20.63;;;13.90;;
26106;SDS011;13866;50.748;12.630;2023-12-14T10:06:41;23.47;;;14.17;;
26106;SDS011;13866;50.748;12.630;2023-12-14T10:09:10;16.90;;;15.00;;
26106;SDS011;13866;50.748;12.630;2023-12-14T10:11:38;21.87;;;15.63;;
26106;SDS011;13866;50.748;12.630;2023-12-14T10:14:20;20.70;;;14.23;;
26106;SDS011;13866;50.748;12.630;2023-12-14T10:16:48;20.73;;;14.57;;
26106;SDS011;13866;50.748;12.630;2023-12-14T10:19:14;23.87;;;13.80;;
26106;SDS011;13866;50.748;12.630;2023-12-14T10:21:42;16.70;;;12.23;;
26106;SDS011;13866;50.748;12.630;2023-12-14T10:24:07;14.83;;;13.17;;
26106;SDS011;13866;50.748;12.630;2023-12-14T10:26:33;13.87;;;12.53;;
26106;SDS011;13866;50.748;12.630;2023-12-14T10:28:59;14.83;;;12.73;;
26106;SDS011;13866;50.748;12.630;2023-12-14T10:31:25;20.40;;;14.13;;
26106;SDS011;13866;50.748;12.630;2023-12-14T10:33:51;14.70;;;11.50;;
26106;SDS011;13866;50.748;12.630;2023-12-14T10:36:20;13.17;;;11.50;;
26106;SDS011;13866;50.748;12.630;2023-12-14T10:38:53;13.27;;;11.83;;
26106;SDS011;13866;50.748;12.630;2023-12-14T10:41:21;20.80;;;12.80;;
26106;SDS011;13866;50.748;12.630;2023-12-14T10:43:48;28.30;;;11.67;;
26106;SDS011;13866;50.748;12.630;2023-12-14T10:46:15;16.27;;;12.57;;
26106;SDS011;13866;50.748;12.630;2023-12-14T10:48:41;15.27;;;13.67;;
26106;SDS011;13866;50.748;12.630;2023-12-14T10:51:11;20.93;;;14.27;;
26106;SDS011;13866;50.748;12.630;2023-12-14T10:53:37;26.33;;;15.87;;
26106;SDS011;13866;50.748;12.630;2023-12-14T10:56:04;20.50;;;14.70;;
26106;SDS011;13866;50.748;12.630;2023-12-14T11:01:29;18.90;;;14.43;;
26106;SDS011;13866;50.748;12.630;2023-12-14T11:03:58;22.60;;;16.30;;
26106;SDS011;13866;50.748;12.630;2023-12-14T11:08:53;21.83;;;15.87;;
26106;SDS011;13866;50.748;12.630;2023-12-14T11:11:20;17.80;;;13.67;;
26106;SDS011;13866;50.748;12.630;2023-12-14T11:13:52;19.03;;;14.43;;
26106;SDS011;13866;50.748;12.630;2023-12-14T11:16:21;18.83;;;15.03;;
26106;SDS011;13866;50.748;12.630;2023-12-14T11:18:48;18.67;;;14.07;;
26106;SDS011;13866;50.748;12.630;2023-12-14T11:21:33;12.27;;;11.00;;
26106;SDS011;13866;50.748;12.630;2023-12-14T11:23:59;11.70;;;10.50;;
26106;SDS011;13866;50.748;12.630;2023-12-14T11:26:26;10.90;;;9.90;;
26106;SDS011;13866;50.748;12.630;2023-12-14T11:28:53;11.63;;;9.63;;
26106;SDS011;13866;50.748;12.630;2023-12-14T11:31:19;11.17;;;10.17;;
26106;SDS011;13866;50.748;12.630;2023-12-14T11:33:45;11.50;;;9.57;;
26106;SDS011;13866;50.748;12.630;2023-12-14T11:36:12;10.07;;;9.27;;
26106;SDS011;13866;50.748;12.630;2023-12-14T11:38:38;9.53;;;8.83;;
26106;SDS011;13866;50.748;12.630;2023-12-14T11:41:04;11.40;;;10.27;;
26106;SDS011;13866;50.748;12.630;2023-12-14T11:43:29;10.80;;;9.80;;
26106;SDS011;13866;50.748;12.630;2023-12-14T11:46:03;14.90;;;10.83;;
26106;SDS011;13866;50.748;12.630;2023-12-14T11:48:28;13.80;;;11.17;;
26106;SDS011;13866;50.748;12.630;2023-12-14T11:50:54;12.87;;;11.67;;
26106;SDS011;13866;50.748;12.630;2023-12-14T11:53:19;12.63;;;11.33;;
26106;SDS011;13866;50.748;12.630;2023-12-14T11:55:45;12.60;;;11.30;;
26106;SDS011;13866;50.748;12.630;2023-12-14T11:58:14;12.10;;;10.80;;
26106;SDS011;13866;50.748;12.630;2023-12-14T12:00:40;11.17;;;10.27;;
26106;SDS011;13866;50.748;12.630;2023-12-14T12:03:10;16.23;;;14.53;;
26106;SDS011;13866;50.748;12.630;2023-12-14T12:05:43;14.13;;;12.63;;
26106;SDS011;13866;50.748;12.630;2023-12-14T12:08:11;17.97;;;15.10;;
26106;SDS011;13866;50.748;12.630;2023-12-14T12:10:37;19.40;;;16.33;;
26106;SDS011;13866;50.748;12.630;2023-12-14T12:13:07;16.03;;;14.50;;
26106;SDS011;13866;50.748;12.630;2023-12-14T12:15:36;17.23;;;14.63;;
26106;SDS011;13866;50.748;12.630;2023-12-14T12:18:11;16.90;;;15.30;;
26106;SDS011;13866;50.748;12.630;2023-12-14T12:20:38;19.10;;;17.20;;
26106;SDS011;13866;50.748;12.630;2023-12-14T12:23:04;20.13;;;16.53;;
26106;SDS011;13866;50.748;12.630;2023-12-14T12:25:30;18.20;;;16.40;;
26106;SDS011;13866;50.748;12.630;2023-12-14T12:27:56;19.90;;;16.40;;
26106;SDS011;13866;50.748;12.630;2023-12-14T12:30:26;17.73;;;14.60;;
26106;SDS011;13866;50.748;12.630;2023-12-14T12:32:52;15.67;;;14.07;;
26106;SDS011;13866;50.748;12.630;2023-12-14T12:35:18;20.37;;;15.73;;
26106;SDS011;13866;50.748;12.630;2023-12-14T12:37:44;15.70;;;14.10;;
26106;SDS011;13866;50.748;12.630;2023-12-14T12:40:10;15.00;;;13.60;;
26106;SDS011;13866;50.748;12.630;2023-12-14T12:42:36;13.70;;;12.60;;
26106;SDS011;13866;50.748;12.630;2023-12-14T12:45:01;13.70;;;12.50;;
26106;SDS011;13866;50.748;12.630;2023-12-14T12:47:27;12.90;;;11.60;;
26106;SDS011;13866;50.748;12.630;2023-12-14T12:49:52;11.90;;;10.97;;
26106;SDS011;13866;50.748;12.630;2023-12-14T12:52:17;13.30;;;12.10;;
26106;SDS011;13866;50.748;12.630;2023-12-14T12:54:43;11.70;;;10.43;;
26106;SDS011;13866;50.748;12.630;2023-12-14T12:57:08;10.53;;;9.80;;
26106;SDS011;13866;50.748;12.630;2023-12-14T12:59:34;12.37;;;11.33;;
26106;SDS011;13866;50.748;12.630;2023-12-14T13:01:59;12.60;;;11.30;;
26106;SDS011;13866;50.748;12.630;2023-12-14T13:04:27;12.27;;;11.27;;
26106;SDS011;13866;50.748;12.630;2023-12-14T13:06:55;15.83;;;12.90;;
26106;SDS011;13866;50.748;12.630;2023-12-14T13:09:20;15.40;;;13.83;;
26106;SDS011;13866;50.748;12.630;2023-12-14T13:11:46;13.30;;;11.80;;
26106;SDS011;13866;50.748;12.630;2023-12-14T13:14:12;15.03;;;13.47;;
26106;SDS011;13866;50.748;12.630;2023-12-14T13:16:38;12.57;;;11.37;;
26106;SDS011;13866;50.748;12.630;2023-12-14T13:19:03;14.90;;;13.37;;
26106;SDS011;13866;50.748;12.630;2023-12-14T13:21:31;13.63;;;12.47;;
26106;SDS011;13866;50.748;12.630;2023-12-14T13:23:59;15.17;;;11.63;;
26106;SDS011;13866;50.748;12.630;2023-12-14T13:26:25;11.67;;;10.77;;
26106;SDS011;13866;50.748;12.630;2023-12-14T13:28:51;13.03;;;11.83;;
26106;SDS011;13866;50.748;12.630;2023-12-14T13:31:17;14.13;;;12.33;;
26106;SDS011;13866;50.748;12.630;2023-12-14T13:33:43;11.67;;;10.77;;
26106;SDS011;13866;50.748;12.630;2023-12-14T13:36:10;12.57;;;11.37;;
26106;SDS011;13866;50.748;12.630;2023-12-14T13:38:36;10.63;;;9.60;;
26106;SDS011;13866;50.748;12.630;2023-12-14T13:41:01;10.73;;;9.80;;
26106;SDS011;13866;50.748;12.630;2023-12-14T13:43:30;11.80;;;10.70;;
26106;SDS011;13866;50.748;12.630;2023-12-14T13:45:56;10.70;;;9.80;;
26106;SDS011;13866;50.748;12.630;2023-12-14T13:48:24;10.90;;;9.90;;
26106;SDS011;13866;50.748;12.630;2023-12-14T13:50:50;11.33;;;10.33;;
26106;SDS011;13866;50.748;12.630;2023-12-14T13:53:16;11.17;;;10.07;;
26106;SDS011;13866;50.748;12.630;2023-12-14T13:55:42;11.40;;;10.40;;
26106;SDS011;13866;50.748;12.630;2023-12-14T13:58:07;15.77;;;10.70;;
26106;SDS011;13866;50.748;12.630;2023-12-14T14:00:33;11.50;;;10.40;;
26106;SDS011;13866;50.748;12.630;2023-12-14T14:02:59;11.73;;;10.70;;
26106;SDS011;13866;50.748;12.630;2023-12-14T14:05:25;11.10;;;10.37;;
26106;SDS011;13866;50.748;12.630;2023-12-14T14:07:51;12.40;;;11.23;;
26106;SDS011;13866;50.748;12.630;2023-12-14T14:10:17;11.03;;;10.23;;
26106;SDS011;13866;50.748;12.630;2023-12-14T14:12:43;10.37;;;9.73;;
26106;SDS011;13866;50.748;12.630;2023-12-14T14:15:09;13.10;;;12.00;;
26106;SDS011;13866;50.748;12.630;2023-12-14T14:17:35;13.63;;;11.83;;